Aérodrome :
LOGIN :

S'inscrire | Disclaimer

   EN    FR    IT 

 










Légende :    VFR   VFR Marginal   IFR   IFR Intensif   IFR Très Intensif
Visi : 
Plafond : 
>= 8 km
>= 3000ft
5 à 8 km
1000 à 3000 ft
1500m à 5 km
500 à 1000 ft
800 à 1500m
200 à 500 ft
< 800m
< 200 ft
Symboles :   Orages  Brouillard  Fortes neiges  Fortes précipitations  Vent > 20 kt
SIGMETs :   Divers  Orages  Givrage  Turbulence  Onde Orograph.  Cendres Volcan.







- Altitude de l'aérodrome : 1558 ft
- Code IATA : IOA


LGIO - Ioannina

METARs EXPIRÉS :
  • 231920Z /////KT 9999 FEW025TCU BKN030 BKN080 19/16 Q1014

TAF TAF LGIO
Valide du 23 à 21h jusqu'au 24 à 06h UTC


232000Z 2321/2406 VRB03KT 9999 SCT025 BKN080
TEMPO 2321/2406 7000 SHRA FEW020CB SCT025 BKN080
PROB40
TEMPO 2321/2406 4000 TSRA FEW018CB BKN025 BKN070
Pas de NOTAMs connus pour ce terrain.
1 SIGMET publié pour la FIR Athinai (LGGG) :
 
Orages noyés dans la masse
LGGG SIGMET 6 VALID 232200/232400 LGAT
LGGG ATHINAI FIR/UIR EMBD TS OBS W OF E02100 AND N OF N3830 STNR NC=



MET'MAP, la Météo Aéronautique d'un coup d'oeil ! - Copyright ORBIFLY Décembre 2007 - Disclaimer

ORBIFLY MET'MAP TEAM :

Programmation & Développement : Alexandra Zaïnal
Conception & Développement : Baudouin d'Aumeries
Co-Programmation & Développement : Marc-Olivier Méhu
Soutien technique & logistique : Manuel Goepfert

Contact : metmap@orbifly.com




SOURCES & CREDITS :

   NOAA